Time;durP1;ratioP1;P1;durP2;ratioP2;P2;SDS_P1;SDS_P2;PMS_P1;PMS_P2;Temp;Humidity;BMP_temperature;BMP_pressure;BME280_temperature;BME280_humidity;BME280_pressure;Samples;Min_cycle;Max_cycle;Signal;HPM_P1;HPM_P2
2023/04/10 00:01:13;;;;;;;87.13;37.05;;;;;;;3.99;100.00;102095.22;5007402;28;20045;-72
2023/04/10 00:03:38;;;;;;;80.30;36.83;;;;;;;3.96;100.00;102090.09;5022953;28;20037;-72
2023/04/10 00:06:04;;;;;;;95.43;39.50;;;;;;;3.97;100.00;102089.16;5006317;28;20060;-72
2023/04/10 00:08:29;;;;;;;96.90;40.30;;;;;;;3.93;100.00;102090.25;5007623;28;20103;-72
2023/04/10 00:10:55;;;;;;;86.13;38.67;;;;;;;3.93;100.00;102092.91;5016233;28;20076;-72
2023/04/10 00:13:21;;;;;;;85.75;38.75;;;;;;;3.92;100.00;102091.22;5016276;28;20040;-72
2023/04/10 00:15:47;;;;;;;90.47;40.42;;;;;;;3.80;100.00;102084.81;5006981;28;20044;-72
2023/04/10 00:18:12;;;;;;;94.20;37.70;;;;;;;3.78;100.00;102082.25;5011747;28;20050;-72
2023/04/10 00:20:38;;;;;;;100.13;38.70;;;;;;;3.81;100.00;102071.50;5015356;28;20088;-72
2023/04/10 00:23:03;;;;;;;91.57;38.80;;;;;;;3.73;100.00;102073.75;5007189;28;20121;-72
2023/04/10 00:25:28;;;;;;;91.67;38.93;;;;;;;3.73;100.00;102076.38;5014184;28;20292;-72
2023/04/10 00:27:54;;;;;;;86.73;37.63;;;;;;;3.75;100.00;102071.88;4999420;28;20042;-72
2023/04/10 00:30:20;;;;;;;90.93;39.33;;;;;;;3.77;100.00;102072.66;5005375;28;20026;-72
2023/04/10 00:32:45;;;;;;;83.70;39.33;;;;;;;3.71;100.00;102070.34;4999598;28;20132;-72
2023/04/10 00:35:10;;;;;;;83.97;37.15;;;;;;;3.70;100.00;102073.03;5010814;28;20586;-72
2023/04/10 00:37:36;;;;;;;94.77;39.20;;;;;;;3.69;100.00;102063.44;5010924;28;20381;-72
2023/04/10 00:40:03;;;;;;;99.88;40.75;;;;;;;3.71;100.00;102072.97;5015128;28;20330;-72
2023/04/10 00:42:28;;;;;;;81.03;36.75;;;;;;;3.68;100.00;102067.88;5022231;28;20038;-72
2023/04/10 00:44:54;;;;;;;88.00;37.17;;;;;;;3.68;100.00;102064.38;5021989;28;20041;-72
2023/04/10 00:47:20;;;;;;;95.65;38.95;;;;;;;3.68;100.00;102067.88;5006722;28;20029;-72
2023/04/10 00:49:45;;;;;;;;;;;;;;;3.67;100.00;102066.16;5019648;28;20488;-72
2023/04/10 00:52:11;;;;;;;92.78;38.72;;;;;;;3.61;100.00;102061.22;5019315;28;19980;-72
2023/04/10 00:54:37;;;;;;;89.20;39.10;;;;;;;3.64;100.00;102061.03;5004667;28;20088;-72
2023/04/10 00:57:06;;;;;;;94.97;43.05;;;;;;;3.65;100.00;102065.38;5022069;28;20518;-72
2023/04/10 00:59:32;;;;;;;88.35;40.15;;;;;;;3.72;100.00;102064.13;5021944;28;20014;-72
2023/04/10 01:01:58;;;;;;;85.25;41.30;;;;;;;3.72;100.00;102074.69;5005331;28;20048;-72
2023/04/10 01:04:27;;;;;;;92.60;37.70;;;;;;;3.70;100.00;102071.28;5019179;28;20035;-72
2023/04/10 01:07:24;;;;;;;87.78;40.05;;;;;;;3.64;100.00;102068.97;5004778;28;20034;-72
2023/04/10 01:10:21;;;;;;;94.22;38.80;;;;;;;3.66;100.00;102071.53;5001124;28;20045;-72
2023/04/10 01:13:26;;;;;;;98.90;38.60;;;;;;;3.67;100.00;102067.94;5002836;28;20026;-72
2023/04/10 01:16:30;;;;;;;87.10;36.97;;;;;;;3.63;100.00;102069.91;5019622;28;20037;-72
2023/04/10 01:19:39;;;;;;;82.43;37.15;;;;;;;3.58;100.00;102064.91;5007391;28;20050;-72
2023/04/10 01:22:10;;;;;;;79.00;36.08;;;;;;;3.64;100.00;102068.97;5006368;28;20038;-72
2023/04/10 01:24:55;;;;;;;87.13;37.33;;;;;;;3.60;100.00;102064.78;5005494;28;20459;-72
2023/04/10 01:27:43;;;;;;;89.82;38.60;;;;;;;3.53;100.00;102064.28;5012898;28;20034;-72
2023/04/10 01:30:12;;;;;;;86.90;36.15;;;;;;;3.65;100.00;102057.44;5013089;28;20033;-72
2023/04/10 01:32:40;;;;;;;84.35;36.53;;;;;;;3.64;100.00;102061.03;5017814;28;20534;-72
2023/04/10 01:35:07;;;;;;;85.47;37.30;;;;;;;3.61;100.00;102058.59;5004967;28;20080;-72
2023/04/10 01:37:39;;;;;;;81.30;38.40;;;;;;;3.59;100.00;102050.75;5005029;28;20437;-71
2023/04/10 01:40:09;;;;;;;84.78;38.03;;;;;;;3.60;100.00;102059.50;5020934;28;20066;-72
2023/04/10 01:42:43;;;;;;;84.47;38.03;;;;;;;3.58;100.00;102050.81;5006398;28;20040;-73
2023/04/10 01:45:14;;;;;;;81.75;38.13;;;;;;;3.55;100.00;102046.56;5006953;28;20037;-72
2023/04/10 01:47:41;;;;;;;81.57;37.28;;;;;;;3.53;100.00;102042.31;5012186;28;20513;-72
2023/04/10 01:50:08;;;;;;;85.57;39.05;;;;;;;3.54;100.00;102042.22;5005373;28;20026;-71
2023/04/10 01:52:34;;;;;;;97.13;41.72;;;;;;;3.56;100.00;102042.16;5004545;28;20569;-72
2023/04/10 01:55:08;;;;;;;89.85;39.85;;;;;;;3.51;100.00;102038.88;5009578;28;20022;-71
2023/04/10 01:57:45;;;;;;;81.53;38.63;;;;;;;3.53;100.00;102034.38;5019679;28;20533;-72
2023/04/10 02:00:11;;;;;;;79.05;36.28;;;;;;;3.55;100.00;102029.88;5003695;28;20057;-73
2023/04/10 02:02:45;;;;;;;81.63;36.50;;;;;;;3.57;100.00;102028.00;5006157;28;20054;-72
2023/04/10 02:05:10;;;;;;;80.07;37.80;;;;;;;3.64;100.00;102034.63;5017627;28;20073;-73
2023/04/10 02:07:41;;;;;;;;;;;;;;;3.65;100.00;102017.84;5005281;28;20121;-71
2023/04/10 02:10:21;;;;;;;79.05;37.70;;;;;;;3.63;100.00;102010.94;5005040;28;19913;-71
2023/04/10 02:13:00;;;;;;;81.78;35.85;;;;;;;3.55;100.00;102008.75;5001650;28;20038;-72
2023/04/10 02:15:27;;;;;;;84.10;38.50;;;;;;;3.56;100.00;101999.91;5005681;28;20038;-73
2023/04/10 02:17:55;;;;;;;77.65;37.95;;;;;;;3.55;100.00;102000.81;4992641;28;20467;-72
2023/04/10 02:20:22;;;;;;;77.72;36.28;;;;;;;3.56;100.00;101989.34;5003773;28;20038;-71
2023/04/10 02:22:48;;;;;;;82.38;36.08;;;;;;;3.56;100.00;101986.69;5005058;28;20034;-73
2023/04/10 02:25:13;;;;;;;75.50;33.30;;;;;;;3.57;100.00;101977.81;5008510;28;20044;-72
2023/04/10 02:27:39;;;;;;;70.88;32.58;;;;;;;3.58;100.00;101980.38;5004355;28;20040;-72
2023/04/10 02:30:05;;;;;;;78.03;35.90;;;;;;;3.53;100.00;101978.94;4987300;28;20022;-73
2023/04/10 02:32:33;;;;;;;81.88;35.38;;;;;;;3.55;100.00;101962.06;5004280;28;20129;-72
2023/04/10 02:34:58;;;;;;;74.60;33.40;;;;;;;3.57;100.00;101962.81;5020471;28;20136;-73
2023/04/10 02:37:24;;;;;;;85.32;34.35;;;;;;;3.48;100.00;101959.84;5006585;28;20026;-72
2023/04/10 02:39:52;;;;;;;72.82;32.42;;;;;;;3.47;100.00;101958.16;5003405;28;20580;-73
2023/04/10 02:42:19;;;;;;;76.85;33.38;;;;;;;3.41;100.00;101955.88;5010040;28;20046;-72
2023/04/10 02:44:46;;;;;;;85.93;38.53;;;;;;;3.38;100.00;101956.88;5005107;28;20072;-73
2023/04/10 02:47:11;;;;;;;86.20;34.78;;;;;;;3.37;100.00;101948.13;5009813;28;20038;-71
2023/04/10 02:49:41;;;;;;;73.57;32.17;;;;;;;3.37;100.00;101956.03;4997965;28;20694;-71
2023/04/10 02:52:11;;;;;;;84.47;35.33;;;;;;;3.39;100.00;101948.03;5015742;28;21028;-71
2023/04/10 02:54:37;;;;;;;69.35;32.55;;;;;;;3.54;100.00;101957.72;5015048;28;20066;-72
2023/04/10 02:57:03;;;;;;;67.43;31.93;;;;;;;3.50;100.00;101952.69;5023606;28;20096;-72
2023/04/10 02:59:29;;;;;;;69.97;33.72;;;;;;;3.48;100.00;101944.00;5021280;28;20411;-73
2023/04/10 03:01:59;;;;;;;64.63;29.88;;;;;;;3.46;100.00;101940.59;4991297;28;20033;-73
2023/04/10 03:04:24;;;;;;;70.60;31.33;;;;;;;3.39;100.00;101929.53;5015092;28;20026;-73
2023/04/10 03:06:50;;;;;;;73.73;31.83;;;;;;;3.40;100.00;101931.25;5023585;28;20026;-72
2023/04/10 03:09:15;;;;;;;70.37;31.07;;;;;;;3.38;100.00;101922.56;5023512;28;20793;-72
2023/04/10 03:11:41;;;;;;;75.03;34.08;;;;;;;3.38;100.00;101918.13;5006927;28;20497;-72
2023/04/10 03:14:08;;;;;;;73.38;31.95;;;;;;;3.38;100.00;101915.50;5023717;28;20041;-72
2023/04/10 03:16:34;;;;;;;65.80;30.23;;;;;;;3.45;100.00;101907.22;5012118;28;20030;-72
2023/04/10 03:19:02;;;;;;;69.47;33.47;;;;;;;3.41;100.00;101914.47;5023113;28;20096;-72
2023/04/10 03:21:27;;;;;;;71.18;32.08;;;;;;;3.37;100.00;101910.28;5008467;28;20030;-73
2023/04/10 03:23:53;;;;;;;64.95;30.60;;;;;;;3.30;100.00;101901.91;5023187;28;20030;-72
2023/04/10 03:26:18;;;;;;;73.27;29.37;;;;;;;3.34;100.00;101890.19;5013700;28;20038;-73
2023/04/10 03:28:43;;;;;;;57.78;29.92;;;;;;;3.39;100.00;101889.94;5016612;28;20030;-73
2023/04/10 03:31:11;;;;;;;64.50;28.98;;;;;;;3.37;100.00;101887.41;5012703;28;20021;-72
2023/04/10 03:33:38;;;;;;;69.25;30.80;;;;;;;3.38;100.00;101893.53;5008126;28;20057;-73
2023/04/10 03:36:04;;;;;;;61.10;29.55;;;;;;;3.35;100.00;101885.78;5000908;28;20073;-72
2023/04/10 03:38:30;;;;;;;63.85;28.83;;;;;;;3.29;100.00;101883.50;5014764;28;20065;-73
2023/04/10 03:40:56;;;;;;;65.47;30.57;;;;;;;3.27;100.00;101878.28;5000082;28;20415;-73
2023/04/10 03:43:24;;;;;;;68.57;30.92;;;;;;;3.29;100.00;101879.06;5023177;28;20765;-72
2023/04/10 03:45:50;;;;;;;63.78;31.83;;;;;;;3.29;100.00;101880.84;5022933;28;20056;-72
2023/04/10 03:48:16;;;;;;;64.50;30.08;;;;;;;3.27;100.00;101880.94;5012762;28;20467;-72
2023/04/10 03:50:45;;;;;;;74.53;32.55;;;;;;;3.21;100.00;101878.66;5000401;28;20467;-73
2023/04/10 03:53:10;;;;;;;72.63;30.13;;;;;;;3.26;100.00;101873.13;5017059;28;20160;-73
2023/04/10 03:55:39;;;;;;;72.10;31.55;;;;;;;3.28;100.00;101880.00;5015824;28;20562;-72
2023/04/10 03:58:05;;;;;;;67.15;30.85;;;;;;;3.30;100.00;101883.41;5022381;28;20037;-72
2023/04/10 04:00:32;;;;;;;64.20;30.60;;;;;;;3.30;100.00;101883.41;5009541;28;20029;-72
2023/04/10 04:03:12;;;;;;;72.80;29.65;;;;;;;3.31;100.00;101877.19;5016049;28;20061;-72
2023/04/10 04:06:00;;;;;;;68.90;30.67;;;;;;;3.29;100.00;101879.06;5006446;28;20053;-72
2023/04/10 04:08:28;;;;;;;66.30;28.52;;;;;;;3.36;100.00;101872.50;5007406;28;20038;-73
2023/04/10 04:11:17;;;;;;;71.60;29.63;;;;;;;3.46;100.00;101879.88;5004930;28;20041;-73
2023/04/10 04:14:01;;;;;;;59.50;29.10;;;;;;;3.40;100.00;101877.63;5010566;28;20519;-72
2023/04/10 04:16:38;;;;;;;67.07;28.27;;;;;;;3.30;100.00;101872.84;5010426;28;20100;-72
2023/04/10 04:19:28;;;;;;;64.70;29.45;;;;;;;3.38;100.00;101875.06;4994515;28;20029;-73
2023/04/10 04:22:10;;;;;;;68.75;30.30;;;;;;;3.36;100.00;101866.38;5001674;28;20479;-73
2023/04/10 04:25:01;;;;;;;56.60;28.17;;;;;;;3.41;100.00;101874.88;5005808;28;20045;-72
2023/04/10 04:27:47;;;;;;;;;;;;;;;3.44;100.00;101873.84;5005160;28;20041;-72
2023/04/10 04:30:31;;;;;;;53.97;26.15;;;;;;;3.44;100.00;101863.28;5007116;28;19924;-75
2023/04/10 04:33:18;;;;;;;64.35;27.10;;;;;;;3.42;100.00;101875.72;5007840;28;20072;-72
2023/04/10 04:35:59;;;;;;;58.63;29.38;;;;;;;3.30;100.00;101856.16;5004693;28;20554;-73
2023/04/10 04:38:50;;;;;;;56.72;28.38;;;;;;;3.34;100.00;101863.81;5003501;28;20049;-72
2023/04/10 04:41:34;;;;;;;61.08;29.77;;;;;;;3.28;100.00;101869.44;5007007;28;20426;-72
2023/04/10 04:44:11;;;;;;;62.35;28.55;;;;;;;3.31;100.00;101863.16;5022335;28;20029;-72
2023/04/10 04:47:06;;;;;;;60.28;27.60;;;;;;;3.31;100.00;101864.00;5018585;28;20029;-73
2023/04/10 04:49:52;;;;;;;57.42;27.70;;;;;;;3.21;100.00;101852.28;5011099;28;20038;-73
2023/04/10 04:52:20;;;;;;;65.60;29.73;;;;;;;3.23;100.00;101860.94;5006840;28;20574;-71
2023/04/10 04:55:00;;;;;;;71.18;28.92;;;;;;;3.26;100.00;101855.50;4995496;28;20181;-72
2023/04/10 04:57:38;;;;;;;78.15;28.77;;;;;;;3.30;100.00;101864.94;5011455;28;20121;-73
2023/04/10 05:00:16;;;;;;;66.07;29.60;;;;;;;3.29;100.00;101872.94;5013752;28;20117;-72
2023/04/10 05:03:00;;;;;;;70.78;29.77;;;;;;;3.27;100.00;101875.66;5007018;28;20165;-73
2023/04/10 05:05:33;;;;;;;61.50;28.38;;;;;;;3.36;100.00;101874.28;5011024;28;20030;-72
2023/04/10 05:08:10;;;;;;;58.58;27.58;;;;;;;3.40;100.00;101873.19;5009158;28;20665;-72
2023/04/10 05:10:59;;;;;;;59.97;28.23;;;;;;;3.38;100.00;101869.78;5013289;28;20456;-72
2023/04/10 05:13:36;;;;;;;58.05;27.42;;;;;;;3.45;100.00;101870.28;5009197;28;20048;-72
2023/04/10 05:16:24;;;;;;;55.08;27.60;;;;;;;3.48;100.00;101872.72;5006498;28;20112;-72
2023/04/10 05:19:13;;;;;;;57.25;27.38;;;;;;;3.45;100.00;101867.63;5001548;28;20065;-72
2023/04/10 05:22:07;;;;;;;58.03;26.52;;;;;;;3.51;100.00;101870.78;5018289;28;20299;-73
2023/04/10 05:25:02;;;;;;;42.97;20.30;;;;;;;3.75;100.00;101883.47;5004575;28;20045;-72
2023/04/10 05:27:36;;;;;;;53.92;26.02;;;;;;;3.80;100.00;101871.69;5008896;28;20292;-73
2023/04/10 05:30:05;;;;;;;54.38;26.05;;;;;;;3.90;100.00;101879.91;5005913;28;20038;-73
2023/04/10 05:32:48;;;;;;;60.20;26.85;;;;;;;3.90;100.00;101865.84;5003780;28;20025;-72
2023/04/10 05:35:38;;;;;;;56.40;26.85;;;;;;;4.02;100.00;101865.94;5008103;28;20083;-73
2023/04/10 05:38:32;;;;;;;54.40;26.30;;;;;;;4.18;100.00;101862.38;5014213;28;20111;-73
2023/04/10 05:41:12;;;;;;;55.15;25.67;;;;;;;4.09;100.00;101855.88;5006979;28;20417;-73
2023/04/10 05:43:54;;;;;;;56.40;24.35;;;;;;;4.03;100.00;101848.31;4988465;28;20049;-72
2023/04/10 05:46:45;;;;;;;57.60;25.33;;;;;;;4.01;100.00;101837.84;4985033;28;20410;-72
2023/04/10 05:49:33;;;;;;;57.45;27.15;;;;;;;4.06;100.00;101834.06;4978234;28;20041;-72
2023/04/10 05:51:58;;;;;;;56.07;25.47;;;;;;;4.16;100.00;101830.75;5007870;28;20042;-72
2023/04/10 05:54:43;;;;;;;57.00;26.75;;;;;;;4.11;100.00;101822.25;4977742;28;20662;-73
2023/04/10 05:57:17;;;;;;;49.22;25.05;;;;;;;4.22;100.00;101840.13;5009868;28;20041;-72
2023/04/10 06:00:00;;;;;;;64.75;27.67;;;;;;;4.27;100.00;101821.34;4998257;28;20545;-71
2023/04/10 06:02:54;;;;;;;51.07;24.33;;;;;;;4.37;100.00;101823.28;4996778;28;20093;-72
2023/04/10 06:05:24;;;;;;;48.90;24.45;;;;;;;4.62;100.00;101829.69;4991199;28;20502;-73
2023/04/10 06:07:56;;;;;;;51.92;25.27;;;;;;;4.60;100.00;101813.06;5014231;28;20231;-73
2023/04/10 06:10:22;;;;;;;50.50;25.47;;;;;;;4.79;100.00;101812.72;5005163;28;20042;-73
2023/04/10 06:12:47;;;;;;;61.42;26.00;;;;;;;4.84;100.00;101798.25;5012189;28;20083;-73
2023/04/10 06:15:13;;;;;;;52.40;24.00;;;;;;;5.31;100.00;101804.00;4995496;28;20045;-73
2023/04/10 06:17:42;;;;;;;49.43;25.10;;;;;;;6.16;100.00;101800.91;5009123;28;20068;-73
2023/04/10 06:20:08;;;;;;;43.38;21.30;;;;;;;6.67;100.00;101791.03;4992990;28;20276;-73
2023/04/10 06:22:33;;;;;;;42.65;19.75;;;;;;;7.70;100.00;101777.16;5008616;28;20457;-73
2023/04/10 06:24:59;;;;;;;40.80;21.07;;;;;;;7.23;100.00;101718.72;5004786;28;20603;-73
2023/04/10 06:27:24;;;;;;;38.00;19.73;;;;;;;7.33;100.00;101706.47;5010562;28;20474;-73
2023/04/10 06:29:50;;;;;;;36.10;20.67;;;;;;;8.04;100.00;101696.44;5018956;28;20030;-72
2023/04/10 06:32:19;;;;;;;36.42;19.80;;;;;;;8.53;100.00;101667.69;5003838;28;20022;-73
2023/04/10 06:34:45;;;;;;;35.30;19.30;;;;;;;9.01;100.00;101642.41;5017436;28;20044;-73
2023/04/10 06:37:10;;;;;;;30.50;18.75;;;;;;;8.25;100.00;101560.00;5009365;28;20654;-72
2023/04/10 06:39:36;;;;;;;36.47;20.05;;;;;;;7.38;100.00;101520.97;5018347;28;20414;-73
2023/04/10 06:42:02;;;;;;;44.20;20.47;;;;;;;7.49;100.00;101546.69;5019768;28;20106;-71
2023/04/10 06:44:39;;;;;;;42.83;21.70;;;;;;;7.17;100.00;101549.25;5013584;28;20033;-71
2023/04/10 06:47:05;;;;;;;40.27;20.57;;;;;;;7.18;100.00;101572.16;5004986;28;20091;-70
2023/04/10 06:49:30;;;;;;;47.08;23.10;;;;;;;7.48;100.00;101574.22;5004610;28;20044;-71
2023/04/10 06:51:56;;;;;;;39.80;22.00;;;;;;;7.23;100.00;101537.28;5008602;28;20105;-71
2023/04/10 06:54:21;;;;;;;35.77;20.60;;;;;;;7.47;100.00;101553.94;5010759;28;20202;-74
2023/04/10 06:56:46;;;;;;;37.87;20.90;;;;;;;7.49;100.00;101548.47;5020039;28;20052;-73
2023/04/10 06:59:12;;;;;;;39.10;20.73;;;;;;;7.92;100.00;101566.31;5004642;28;20178;-74
2023/04/10 07:01:37;;;;;;;40.93;21.67;;;;;;;7.21;100.00;101518.84;5007787;28;20057;-73
2023/04/10 07:04:03;;;;;;;40.23;20.80;;;;;;;7.08;100.00;101556.13;5003401;28;20096;-72
2023/04/10 07:06:28;;;;;;;45.23;22.57;;;;;;;7.37;100.00;101556.50;5011452;28;20038;-73
2023/04/10 07:08:53;;;;;;;44.20;20.80;;;;;;;7.46;100.00;101548.75;5004464;28;20299;-73
2023/04/10 07:11:19;;;;;;;37.87;20.17;;;;;;;7.67;100.00;101536.38;5010049;28;20080;-71
2023/04/10 07:13:44;;;;;;;36.83;19.80;;;;;;;7.71;100.00;101521.88;5019649;28;20153;-72
2023/04/10 07:16:09;;;;;;;38.73;20.93;;;;;;;8.08;100.00;101512.66;5003973;28;20132;-71
2023/04/10 07:18:37;;;;;;;39.75;21.88;;;;;;;8.55;100.00;101495.41;5010305;28;20108;-70
2023/04/10 07:21:08;;;;;;;41.22;21.90;;;;;;;8.51;100.00;101405.31;5004021;28;20061;-73
2023/04/10 07:23:34;;;;;;;38.78;20.75;;;;;;;8.84;100.00;101410.34;5011392;28;20030;-71
2023/04/10 07:26:00;;;;;;;37.78;21.52;;;;;;;8.28;100.00;101309.66;5004421;28;20561;-72
2023/04/10 07:28:25;;;;;;;37.35;21.60;;;;;;;7.95;100.00;101321.41;5003000;28;20040;-69
2023/04/10 07:30:51;;;;;;;36.53;20.23;;;;;;;8.52;100.00;101383.03;5003274;28;20038;-72
2023/04/10 07:33:16;;;;;;;38.10;19.70;;;;;;;8.26;100.00;101316.94;5019945;28;20044;-72
2023/04/10 07:35:41;;;;;;;37.00;20.40;;;;;;;8.28;100.00;101316.81;5000775;28;20463;-71
2023/04/10 07:38:07;;;;;;;40.03;21.80;;;;;;;8.65;100.00;101363.22;5002938;28;20493;-73
2023/04/10 07:40:32;;;;;;;37.37;20.17;;;;;;;8.87;100.00;101324.03;5020053;28;20080;-72
2023/04/10 07:42:57;;;;;;;38.30;20.50;;;;;;;9.00;100.00;101247.38;5007871;28;20079;-73
2023/04/10 07:45:23;;;;;;;34.93;18.67;;;;;;;8.84;100.00;101223.97;5007282;28;20025;-71
2023/04/10 07:47:48;;;;;;;33.67;19.70;;;;;;;9.36;100.00;101204.16;5007759;28;20044;-72
2023/04/10 07:50:13;;;;;;;39.33;20.83;;;;;;;9.73;100.00;101154.38;5006183;28;20030;-72
2023/04/10 07:52:38;;;;;;;38.27;22.03;;;;;;;9.81;100.00;101099.47;5006600;28;20044;-71
2023/04/10 07:55:04;;;;;;;35.87;20.40;;;;;;;9.37;100.00;100955.38;5023072;28;20121;-71
2023/04/10 07:57:31;;;;;;;35.85;21.27;;;;;;;9.60;100.00;101023.25;5008217;28;20925;-71
2023/04/10 07:59:56;;;;;;;;;;;;;;;9.57;100.00;100977.41;5006865;28;20041;-72
2023/04/10 08:02:21;;;;;;;33.45;19.33;;;;;;;10.00;100.00;100976.66;5005939;28;19939;-72
2023/04/10 08:04:46;;;;;;;37.73;20.67;;;;;;;10.09;100.00;100844.16;5008915;28;20038;-71
2023/04/10 08:07:12;;;;;;;35.87;20.00;;;;;;;10.56;100.00;100903.38;5009671;28;20483;-71
2023/04/10 08:09:37;;;;;;;33.57;21.00;;;;;;;10.67;100.00;100837.34;5005359;28;20061;-72
2023/04/10 08:12:03;;;;;;;30.90;19.63;;;;;;;11.49;100.00;100854.41;5005385;28;20037;-72
2023/04/10 08:14:28;;;;;;;32.43;19.57;;;;;;;12.10;100.00;100624.75;5005838;28;20041;-72
2023/04/10 08:16:53;;;;;;;32.90;19.73;;;;;;;11.30;100.00;100462.66;5006205;28;20041;-72
2023/04/10 08:19:19;;;;;;;33.00;19.80;;;;;;;12.00;100.00;100485.03;5011884;28;20053;-72
2023/04/10 08:21:44;;;;;;;27.80;17.20;;;;;;;12.97;100.00;100415.50;5007080;28;20129;-72
2023/04/10 08:24:12;;;;;;;36.23;21.07;;;;;;;13.22;100.00;100099.69;5006958;28;20033;-72
2023/04/10 08:26:37;;;;;;;29.70;18.98;;;;;;;13.25;100.00;100068.97;5006801;28;20042;-72
2023/04/10 08:29:03;;;;;;;31.70;19.50;;;;;;;12.12;100.00;99846.75;5006615;28;20482;-72
2023/04/10 08:31:28;;;;;;;30.53;20.20;;;;;;;11.60;100.00;100037.75;5013625;28;20308;-72
2023/04/10 08:33:54;;;;;;;29.63;19.30;;;;;;;12.17;100.00;100269.78;5010699;28;20128;-72
2023/04/10 08:36:19;;;;;;;29.67;18.42;;;;;;;12.72;100.00;100199.84;5006690;28;20076;-72
2023/04/10 08:38:45;;;;;;;30.70;19.48;;;;;;;12.41;100.00;99997.50;5015557;28;20042;-72
2023/04/10 08:41:16;;;;;;;30.07;19.17;;;;;;;12.47;100.00;99844.09;5005290;28;20038;-72
2023/04/10 08:43:42;;;;;;;27.85;18.30;;;;;;;12.09;100.00;99774.91;5004471;28;20288;-72
2023/04/10 08:46:08;;;;;;;;;;;;;;;12.87;100.00;100093.44;5000104;28;20014;-72
2023/04/10 08:49:02;;;;;;;28.83;17.98;;;;;;;13.20;100.00;99790.81;5003960;28;19918;-72
2023/04/10 08:51:38;;;;;;;28.80;18.20;;;;;;;12.09;100.00;99709.88;5001197;28;20120;-72
2023/04/10 08:54:13;;;;;;;25.88;16.88;;;;;;;12.33;100.00;99970.84;5019768;28;20029;-71
2023/04/10 08:56:41;;;;;;;29.35;17.75;;;;;;;12.96;100.00;99866.41;5005339;28;20045;-72
2023/04/10 08:59:08;;;;;;;23.42;15.30;;;;;;;13.54;100.00;100025.06;5017996;28;20037;-72
2023/04/10 09:01:34;;;;;;;26.73;17.65;;;;;;;13.70;95.42;99632.28;5008837;28;20105;-72
2023/04/10 09:03:59;;;;;;;27.33;17.63;;;;;;;13.92;92.33;99451.19;5015202;28;20945;-72
2023/04/10 09:06:26;;;;;;;28.70;18.10;;;;;;;12.98;91.74;99368.72;5006440;28;20037;-72
2023/04/10 09:08:51;;;;;;;28.83;18.15;;;;;;;13.15;91.20;99449.47;5005988;28;20040;-72
2023/04/10 09:11:17;;;;;;;22.77;16.37;;;;;;;13.72;90.83;99614.13;5006574;28;20213;-72
2023/04/10 09:13:43;;;;;;;27.63;17.48;;;;;;;13.88;88.18;99443.78;5005510;28;20050;-72
2023/04/10 09:16:10;;;;;;;28.88;17.83;;;;;;;14.30;86.23;99355.53;5006158;28;20080;-72
2023/04/10 09:18:44;;;;;;;25.58;17.42;;;;;;;13.88;85.46;99278.31;5006355;28;20045;-72
2023/04/10 09:21:11;;;;;;;26.63;16.70;;;;;;;14.43;85.40;99515.72;5001238;28;20068;-72
2023/04/10 09:23:37;;;;;;;25.23;16.63;;;;;;;14.06;82.82;99134.47;5009616;28;20442;-72
2023/04/10 09:26:23;;;;;;;24.07;16.13;;;;;;;14.51;82.49;99327.44;5010381;28;20228;-72
2023/04/10 09:28:59;;;;;;;;;;;;;;;14.61;82.70;99402.16;5003858;28;20288;-73
2023/04/10 09:31:31;;;;;;;23.08;15.30;;;;;;;14.70;81.95;99436.59;5021607;28;19921;-72
2023/04/10 09:34:14;;;;;;;23.20;15.18;;;;;;;14.15;78.87;98924.59;5021103;28;20140;-73
2023/04/10 09:36:41;;;;;;;23.77;14.73;;;;;;;15.01;80.40;99410.66;5005438;28;20056;-72
2023/04/10 09:39:09;;;;;;;20.95;14.60;;;;;;;15.19;77.86;99213.56;5005175;28;20033;-72
2023/04/10 09:41:34;;;;;;;21.33;14.88;;;;;;;15.61;76.89;99230.47;5019820;28;20038;-72
2023/04/10 09:44:08;;;;;;;22.60;15.47;;;;;;;15.51;75.96;99149.53;5021359;28;20048;-72
2023/04/10 09:46:34;;;;;;;21.40;14.65;;;;;;;15.15;76.42;99116.44;5009563;28;20026;-72
2023/04/10 09:49:03;;;;;;;18.73;14.80;;;;;;;15.57;76.28;99261.59;5020648;28;20092;-73
2023/04/10 09:51:30;;;;;;;18.85;13.45;;;;;;;15.26;73.80;98861.28;5006268;28;20033;-73
2023/04/10 09:53:56;;;;;;;19.83;13.48;;;;;;;15.28;72.55;98872.63;5005502;28;20064;-72
2023/04/10 09:56:21;;;;;;;22.93;14.97;;;;;;;15.63;72.51;99144.97;5004607;28;20083;-73
2023/04/10 09:58:48;;;;;;;21.17;14.25;;;;;;;15.33;71.91;98946.13;5005028;28;20084;-73
2023/04/10 10:01:14;;;;;;;21.10;14.63;;;;;;;15.08;70.11;98660.72;5011622;28;20103;-73
2023/04/10 10:03:40;;;;;;;17.70;12.95;;;;;;;16.14;71.46;99254.88;5003943;28;20029;-73
2023/04/10 10:06:06;;;;;;;20.52;14.23;;;;;;;15.70;69.14;98837.34;4992679;28;20038;-73
2023/04/10 10:08:32;;;;;;;;;;;;;;;17.10;69.38;99346.91;5020974;28;20037;-73
2023/04/10 10:10:59;;;;;;;19.80;14.40;;;;;;;15.63;66.54;98439.44;5005660;28;19913;-73
2023/04/10 10:13:36;;;;;;;21.35;13.57;;;;;;;15.63;67.23;98694.94;5007303;28;20057;-72
2023/04/10 10:16:25;;;;;;;19.75;12.55;;;;;;;15.57;66.69;98602.63;5004217;28;20096;-73
2023/04/10 10:18:58;;;;;;;20.67;14.07;;;;;;;15.81;67.13;98915.34;4976753;28;20050;-73
2023/04/10 10:21:26;;;;;;;20.73;13.23;;;;;;;16.41;66.08;98981.28;4966972;28;20502;-72
2023/04/10 10:23:56;;;;;;;18.33;12.52;;;;;;;16.98;64.18;98907.53;4983404;28;20129;-73
2023/04/10 10:26:22;;;;;;;17.38;13.05;;;;;;;17.48;63.83;99013.63;4983611;28;20093;-73
2023/04/10 10:28:50;;;;;;;19.95;13.95;;;;;;;16.46;63.57;98782.06;4988138;28;20065;-73
2023/04/10 10:31:17;;;;;;;17.13;11.38;;;;;;;17.11;63.26;98984.53;4976495;28;20044;-73
2023/04/10 10:33:43;;;;;;;18.17;12.45;;;;;;;16.95;61.63;98688.88;4982979;28;20042;-73
2023/04/10 10:36:12;;;;;;;17.38;11.00;;;;;;;16.46;61.43;98523.50;4983253;28;20197;-72
2023/04/10 10:38:43;;;;;;;17.42;12.65;;;;;;;17.12;61.13;98818.22;4983039;28;20026;-73
2023/04/10 10:41:15;;;;;;;16.75;11.68;;;;;;;16.58;60.58;98542.19;4986796;28;20037;-72
2023/04/10 10:43:54;;;;;;;18.45;12.15;;;;;;;16.30;60.14;98405.94;4983896;28;20058;-72
2023/04/10 10:46:44;;;;;;;13.90;10.57;;;;;;;16.35;60.92;98621.41;4960793;28;20037;-73
2023/04/10 10:49:10;;;;;;;17.40;12.85;;;;;;;16.73;59.88;98567.66;4982894;28;20163;-73
2023/04/10 10:51:46;;;;;;;14.50;11.47;;;;;;;17.35;61.03;98960.88;4983216;28;20192;-75
2023/04/10 10:54:31;;;;;;;16.33;11.05;;;;;;;18.17;58.73;98932.09;4983389;28;20034;-73
2023/04/10 10:56:56;;;;;;;14.52;10.82;;;;;;;17.79;57.72;98620.75;5002574;28;20084;-73
2023/04/10 10:59:46;;;;;;;16.38;11.68;;;;;;;17.10;58.76;98635.13;5003998;28;20045;-74
2023/04/10 11:02:16;;;;;;;16.00;11.15;;;;;;;16.90;58.20;98428.22;5017436;28;20069;-72
2023/04/10 11:04:46;;;;;;;15.15;11.10;;;;;;;16.21;57.88;98166.03;5020506;28;20045;-71
2023/04/10 11:07:13;;;;;;;14.23;10.35;;;;;;;16.67;58.72;98591.84;4995054;28;20049;-72
2023/04/10 11:09:49;;;;;;;16.38;10.07;;;;;;;15.90;56.12;97904.09;5005097;28;20026;-71
2023/04/10 11:12:18;;;;;;;15.52;10.50;;;;;;;16.61;56.73;98352.31;5005318;28;20132;-74
2023/04/10 11:14:54;;;;;;;12.75;8.73;;;;;;;17.99;55.71;98728.09;5021449;28;20682;-73
2023/04/10 11:17:39;;;;;;;;;;;;;;;16.98;55.36;98332.59;5021668;28;20268;-75
2023/04/10 11:20:06;;;;;;;14.13;9.98;;;;;;;16.53;54.44;97994.59;5008551;28;19921;-72
2023/04/10 11:23:09;;;;;;;12.63;9.57;;;;;;;16.32;54.33;97940.75;5009295;28;20022;-73
2023/04/10 11:25:54;;;;;;;14.43;11.05;;;;;;;15.77;55.35;97950.31;5009152;28;20034;-73
2023/04/10 11:28:32;;;;;;;13.98;9.05;;;;;;;16.29;55.05;98162.00;5007113;28;20029;-72
2023/04/10 11:31:20;;;;;;;11.50;8.48;;;;;;;16.41;53.87;98014.53;5023388;28;20125;-72